createdAt,value
2018-07-06T00:02:11.189Z,69.92
2018-07-06T00:04:51.754Z,70.57
2018-07-06T00:07:31.960Z,70.28
2018-07-06T00:10:12.341Z,70.98
2018-07-06T00:12:52.636Z,70.68
2018-07-06T00:15:33.180Z,71.09
2018-07-06T00:18:13.686Z,71.54
2018-07-06T00:20:53.955Z,71.77
2018-07-06T00:23:34.291Z,72.17
2018-07-06T00:26:14.585Z,71.93
2018-07-06T00:28:54.795Z,72.67
2018-07-06T00:31:35.167Z,72.48
2018-07-06T00:34:15.540Z,71.77
2018-07-06T00:36:55.972Z,72.18
2018-07-06T00:39:36.545Z,71.88
2018-07-06T00:42:16.941Z,72.97
2018-07-06T00:44:57.205Z,72.86
2018-07-06T00:47:37.504Z,73.04
2018-07-06T00:50:17.733Z,72.03
2018-07-06T00:52:57.991Z,72.37
2018-07-06T00:55:38.288Z,72.09
2018-07-06T00:58:23.166Z,72.54
2018-07-06T01:01:03.932Z,72.21
2018-07-06T01:03:44.309Z,72.14
2018-07-06T01:06:24.622Z,71.22
2018-07-06T01:09:04.913Z,71.38
2018-07-06T01:11:45.325Z,71.50
2018-07-06T01:14:25.702Z,71.71
2018-07-06T01:17:10.144Z,71.58
2018-07-06T01:19:50.552Z,71.03
2018-07-06T01:22:30.868Z,71.12
2018-07-06T01:25:11.215Z,72.06
2018-07-06T01:27:51.550Z,70.62
2018-07-06T01:30:31.866Z,70.38
2018-07-06T01:33:12.157Z,71.11
2018-07-06T01:35:52.465Z,70.41
2018-07-06T01:38:32.930Z,70.70
2018-07-06T01:41:13.213Z,70.30
2018-07-06T01:43:53.436Z,69.92
2018-07-06T01:46:33.690Z,68.86
2018-07-06T01:49:13.888Z,68.90
2018-07-06T01:51:54.188Z,68.57
2018-07-06T01:54:34.529Z,68.96
2018-07-06T01:57:14.937Z,68.51
2018-07-06T01:59:55.138Z,68.62
2018-07-06T02:02:35.558Z,67.85
2018-07-06T02:05:15.894Z,68.41
2018-07-06T02:07:56.270Z,68.46
2018-07-06T02:10:36.547Z,68.42
2018-07-06T02:13:16.914Z,68.83
2018-07-06T02:15:57.261Z,68.61
2018-07-06T02:18:37.749Z,69.47
2018-07-06T02:21:18.088Z,69.24
2018-07-06T02:23:58.447Z,68.73
2018-07-06T02:26:39.782Z,68.98
2018-07-06T02:29:20.088Z,69.93
2018-07-06T02:32:00.346Z,70.35
2018-07-06T02:34:40.859Z,70.19
2018-07-06T02:37:21.219Z,69.80
2018-07-06T02:40:01.784Z,69.47
2018-07-06T02:42:42.356Z,68.53
2018-07-06T02:45:22.990Z,69.19
2018-07-06T02:48:03.413Z,68.33
2018-07-06T02:50:43.755Z,69.45
2018-07-06T02:53:24.354Z,69.12
2018-07-06T02:56:04.593Z,69.12
2018-07-06T02:58:45.099Z,68.95
2018-07-06T03:01:25.489Z,67.24
2018-07-06T03:04:05.788Z,68.27
2018-07-06T03:06:46.237Z,67.37
2018-07-06T03:09:26.670Z,68.31
2018-07-06T03:12:06.969Z,67.46
2018-07-06T03:14:47.394Z,67.01
2018-07-06T03:17:27.749Z,67.06
2018-07-06T03:20:08.071Z,67.02
2018-07-06T03:22:48.354Z,66.58
2018-07-06T03:25:28.967Z,66.99
2018-07-06T03:28:09.257Z,66.87
2018-07-06T03:30:49.578Z,67.02
2018-07-06T03:33:29.870Z,66.29
2018-07-06T03:36:10.251Z,66.58
2018-07-06T03:38:50.594Z,67.26
2018-07-06T03:41:31.017Z,67.11
2018-07-06T03:44:11.342Z,67.56
2018-07-06T03:46:51.678Z,67.49
2018-07-06T03:49:32.014Z,67.53
2018-07-06T03:52:12.219Z,67.40
2018-07-06T03:54:55.380Z,67.89
2018-07-06T03:57:36.599Z,68.32
2018-07-06T04:00:17.078Z,68.73
2018-07-06T04:02:57.454Z,67.94
2018-07-06T04:05:37.789Z,67.74
2018-07-06T04:08:18.170Z,68.66
2018-07-06T04:10:58.393Z,67.69
2018-07-06T04:13:38.711Z,68.00
2018-07-06T04:16:19.152Z,67.65
2018-07-06T04:19:06.826Z,67.44
2018-07-06T04:21:47.273Z,68.00
2018-07-06T04:24:27.833Z,66.53
2018-07-06T04:27:08.286Z,66.43
2018-07-06T04:29:48.759Z,68.40
2018-07-06T04:32:29.126Z,66.18
2018-07-06T04:35:09.321Z,66.60
2018-07-06T04:37:49.833Z,65.81
2018-07-06T04:40:30.325Z,65.98
2018-07-06T04:43:10.510Z,64.56
2018-07-06T04:45:50.925Z,64.11
2018-07-06T04:48:31.324Z,63.94
2018-07-06T04:51:11.940Z,64.00
2018-07-06T04:53:52.469Z,64.30
2018-07-06T04:56:32.825Z,63.45
2018-07-06T04:59:13.339Z,63.35
2018-07-06T05:01:53.621Z,64.47
2018-07-06T05:04:34.140Z,63.06
2018-07-06T05:07:14.504Z,63.09
2018-07-06T05:09:54.968Z,62.63
2018-07-06T05:12:35.306Z,63.10
2018-07-06T05:15:15.729Z,63.23
2018-07-06T05:17:56.168Z,62.90
2018-07-06T05:20:36.561Z,63.54
2018-07-06T05:23:16.886Z,63.73
2018-07-06T05:25:57.284Z,63.75
2018-07-06T05:28:37.700Z,63.42
2018-07-06T05:31:18.622Z,62.50
2018-07-06T05:33:58.956Z,62.17
2018-07-06T05:36:39.318Z,61.43
2018-07-06T05:39:19.742Z,60.49
2018-07-06T05:42:00.251Z,61.31
2018-07-06T05:44:40.537Z,61.57
2018-07-06T05:47:20.979Z,60.89
2018-07-06T05:50:01.535Z,60.53
2018-07-06T05:52:42.118Z,60.06
2018-07-06T05:55:22.400Z,59.79
2018-07-06T05:58:02.787Z,60.48
2018-07-06T06:00:43.170Z,59.93
2018-07-06T06:03:23.390Z,61.05
2018-07-06T06:06:03.687Z,60.63
2018-07-06T06:08:31.660Z,60.35
2018-07-06T06:11:00.594Z,60.90
2018-07-06T06:13:29.592Z,59.04
2018-07-06T06:18:25.551Z,57.92
2018-07-06T06:20:54.514Z,56.15
2018-07-06T06:23:23.452Z,56.44
2018-07-06T06:25:52.429Z,57.74
2018-07-06T06:28:21.409Z,55.36
2018-07-06T06:30:50.612Z,57.75
2018-07-06T06:33:19.604Z,58.90
2018-07-06T06:35:48.602Z,58.29
2018-07-06T06:38:17.546Z,58.43
2018-07-06T06:40:46.594Z,60.50
2018-07-06T06:43:16.277Z,60.34
2018-07-06T06:45:45.202Z,61.24
2018-07-06T06:48:14.146Z,62.72
2018-07-06T06:50:43.074Z,62.87
2018-07-06T06:53:12.051Z,62.77
2018-07-06T06:55:41.002Z,62.98
2018-07-06T06:58:09.941Z,63.78
2018-07-06T07:00:38.886Z,65.02
2018-07-06T07:03:07.881Z,63.75
2018-07-06T07:05:36.851Z,65.15
2018-07-06T07:08:05.781Z,64.59
2018-07-06T07:10:34.896Z,63.74
2018-07-06T07:13:03.812Z,64.82
2018-07-06T07:15:32.824Z,63.85
2018-07-06T07:18:01.789Z,62.40
2018-07-06T07:20:30.781Z,60.94
2018-07-06T07:22:59.811Z,61.43
2018-07-06T07:25:28.840Z,61.91
2018-07-06T07:27:57.794Z,61.44
2018-07-06T07:30:26.761Z,61.92
2018-07-06T07:32:55.691Z,61.26
2018-07-06T07:35:24.636Z,62.38
2018-07-06T07:37:53.562Z,62.22
2018-07-06T07:40:22.488Z,62.08
2018-07-06T07:42:51.450Z,61.76
2018-07-06T07:45:20.466Z,62.56
2018-07-06T07:47:49.438Z,63.22
2018-07-06T07:50:18.381Z,61.89
2018-07-06T07:52:58.751Z,62.62
2018-07-06T07:55:27.672Z,63.37
2018-07-06T07:57:56.649Z,62.50
2018-07-06T08:00:26.009Z,62.07
2018-07-06T08:02:54.859Z,61.94
2018-07-06T08:05:23.821Z,61.39
2018-07-06T08:07:52.778Z,62.41
2018-07-06T08:10:21.777Z,62.11
2018-07-06T08:12:50.762Z,61.62
2018-07-06T08:15:19.674Z,62.30
2018-07-06T08:17:48.622Z,63.58
2018-07-06T08:20:17.545Z,63.63
2018-07-06T08:22:46.581Z,61.99
2018-07-06T08:25:15.516Z,62.20
2018-07-06T08:27:44.452Z,60.84
2018-07-06T08:30:13.414Z,61.45
2018-07-06T08:32:42.342Z,60.87
2018-07-06T08:35:22.703Z,61.12
2018-07-06T08:38:03.621Z,58.89
2018-07-06T08:40:32.590Z,56.85
2018-07-06T08:43:02.815Z,58.70
2018-07-06T08:45:32.610Z,56.54
2018-07-06T08:48:01.519Z,56.13
2018-07-06T08:50:30.473Z,57.63
2018-07-06T08:52:59.607Z,56.51
2018-07-06T08:55:28.926Z,54.12
2018-07-06T08:57:58.615Z,55.00
2018-07-06T09:00:27.540Z,55.00
2018-07-06T09:02:56.493Z,56.59
2018-07-06T09:05:25.452Z,54.58
2018-07-06T09:07:54.748Z,54.75
2018-07-06T09:10:23.669Z,52.72
2018-07-06T09:12:52.647Z,52.30
2018-07-06T09:15:21.617Z,53.10
2018-07-06T09:17:50.565Z,50.52
2018-07-06T09:20:19.654Z,47.78
2018-07-06T09:22:48.634Z,49.03
2018-07-06T09:25:17.689Z,45.91
2018-07-06T09:27:46.564Z,46.50
2018-07-06T09:30:15.512Z,49.94
2018-07-06T09:32:44.435Z,50.52
2018-07-06T09:35:13.516Z,49.37
2018-07-06T09:37:42.299Z,47.32
2018-07-06T09:40:11.242Z,48.29
2018-07-06T09:42:40.177Z,46.69
2018-07-06T09:45:09.127Z,46.03
2018-07-06T09:47:38.076Z,49.09
2018-07-06T09:50:07.041Z,44.07
2018-07-06T09:52:35.973Z,45.25
2018-07-06T09:55:04.910Z,42.68
2018-07-06T09:57:33.852Z,41.86
2018-07-06T10:00:02.829Z,43.03
2018-07-06T10:02:31.862Z,41.61
2018-07-06T10:05:00.871Z,40.54
2018-07-06T10:07:29.864Z,40.21
2018-07-06T10:09:58.810Z,40.79
2018-07-06T10:12:27.826Z,41.97
2018-07-06T10:14:56.973Z,42.79
2018-07-06T10:17:25.992Z,43.50
2018-07-06T10:19:54.984Z,41.75
2018-07-06T10:22:23.849Z,42.54
2018-07-06T10:24:52.798Z,40.99
2018-07-06T10:27:26.640Z,42.21
2018-07-06T10:30:03.277Z,41.85
2018-07-06T10:32:32.212Z,42.28
2018-07-06T10:35:01.273Z,39.69
2018-07-06T10:37:30.670Z,41.05
2018-07-06T10:39:59.652Z,39.97
2018-07-06T10:42:28.582Z,39.80
2018-07-06T10:44:57.553Z,39.04
2018-07-06T10:47:26.480Z,41.27
2018-07-06T10:49:55.410Z,40.85
2018-07-06T10:52:24.360Z,41.11
2018-07-06T10:54:53.306Z,42.02
2018-07-06T10:57:22.221Z,40.14
2018-07-06T10:59:51.190Z,39.52
2018-07-06T11:02:20.150Z,40.84
2018-07-06T11:04:49.098Z,40.89
2018-07-06T11:07:18.040Z,40.75
2018-07-06T11:09:47.316Z,41.42
2018-07-06T11:12:16.661Z,39.36
2018-07-06T11:14:48.509Z,40.06
2018-07-06T11:17:22.950Z,40.50
2018-07-06T11:19:51.870Z,41.87
2018-07-06T11:22:20.863Z,40.32
2018-07-06T11:24:49.770Z,39.08
2018-07-06T11:27:18.690Z,40.29
2018-07-06T11:29:47.727Z,40.66
2018-07-06T11:32:16.661Z,42.65
2018-07-06T11:34:45.605Z,41.11
2018-07-06T11:37:14.487Z,43.30
2018-07-06T11:39:43.412Z,42.12
2018-07-06T11:42:12.405Z,41.59
2018-07-06T11:44:41.325Z,41.35
2018-07-06T11:47:10.289Z,38.95
2018-07-06T11:49:39.229Z,37.75
2018-07-06T11:52:08.173Z,36.75
2018-07-06T11:54:37.091Z,37.34
2018-07-06T11:57:06.009Z,38.36
2018-07-06T11:59:34.932Z,39.57
2018-07-06T12:02:03.834Z,39.02
2018-07-06T12:04:32.966Z,41.42
2018-07-06T12:07:01.792Z,41.22
2018-07-06T12:09:30.744Z,41.77
2018-07-06T12:12:00.166Z,39.81
2018-07-06T12:14:29.166Z,39.49
2018-07-06T12:16:58.144Z,38.35
2018-07-06T12:19:27.061Z,37.31
2018-07-06T12:21:56.154Z,37.45
2018-07-06T12:24:25.085Z,39.52
2018-07-06T12:26:54.015Z,38.42
2018-07-06T12:29:23.003Z,38.11
2018-07-06T12:31:52.062Z,38.80
2018-07-06T12:34:21.124Z,40.01
2018-07-06T12:36:54.851Z,40.59
2018-07-06T12:39:24.240Z,41.61
2018-07-06T12:41:53.156Z,41.96
2018-07-06T12:44:22.134Z,45.31
2018-07-06T12:46:51.190Z,43.38
2018-07-06T12:49:20.156Z,45.79
2018-07-06T12:51:49.176Z,46.29
2018-07-06T12:54:18.119Z,45.50
2018-07-06T12:56:47.026Z,46.85
2018-07-06T12:59:15.953Z,45.11
2018-07-06T13:01:44.880Z,45.89
2018-07-06T13:04:13.781Z,45.64
2018-07-06T13:06:42.808Z,46.27
2018-07-06T13:09:11.746Z,46.72
2018-07-06T13:11:40.718Z,48.14
2018-07-06T13:14:09.694Z,48.60
2018-07-06T13:16:38.595Z,48.54
2018-07-06T13:19:07.525Z,47.14
2018-07-06T13:21:36.461Z,47.47
2018-07-06T13:24:05.654Z,48.67
2018-07-06T13:26:34.615Z,49.23
2018-07-06T13:29:03.541Z,47.20
2018-07-06T13:31:32.509Z,48.77
2018-07-06T13:34:01.462Z,49.23
2018-07-06T13:36:30.435Z,49.73
2018-07-06T13:38:59.392Z,49.89
2018-07-06T13:41:28.405Z,50.29
2018-07-06T13:43:57.325Z,50.29
2018-07-06T13:46:26.278Z,49.68
2018-07-06T13:48:55.295Z,48.98
2018-07-06T13:51:25.020Z,48.85
2018-07-06T13:53:53.954Z,50.49
2018-07-06T13:56:22.959Z,50.57
2018-07-06T13:58:51.911Z,50.53
2018-07-06T14:01:21.242Z,50.79
2018-07-06T14:03:50.190Z,52.23
2018-07-06T14:06:19.241Z,50.68
2018-07-06T14:08:48.259Z,50.91
2018-07-06T14:11:17.969Z,49.12
2018-07-06T14:13:46.934Z,48.75
2018-07-06T14:16:15.905Z,48.44
2018-07-06T14:18:44.816Z,49.92
2018-07-06T14:21:13.766Z,49.27
2018-07-06T14:23:42.752Z,50.37
2018-07-06T14:26:11.765Z,49.26
2018-07-06T14:28:40.751Z,49.81
2018-07-06T14:31:11.468Z,52.61
2018-07-06T14:33:40.473Z,52.15
2018-07-06T14:36:09.689Z,52.38
2018-07-06T14:38:38.677Z,51.33
2018-07-06T14:41:07.685Z,52.60
2018-07-06T14:43:36.597Z,52.87
2018-07-06T14:46:05.536Z,52.45
2018-07-06T14:48:34.531Z,53.79
2018-07-06T14:51:03.525Z,53.09
2018-07-06T14:53:32.462Z,52.70
2018-07-06T14:56:01.399Z,53.28
2018-07-06T14:58:30.444Z,52.26
2018-07-06T15:01:00.497Z,53.85
2018-07-06T15:03:29.430Z,53.29
2018-07-06T15:05:58.449Z,52.27
2018-07-06T15:08:27.365Z,53.42
2018-07-06T15:10:56.646Z,53.37
2018-07-06T15:13:25.577Z,53.58
2018-07-06T15:15:54.714Z,53.96
2018-07-06T15:18:23.696Z,55.15
2018-07-06T15:20:52.565Z,56.36
2018-07-06T15:23:21.476Z,55.76
2018-07-06T15:25:50.434Z,55.25
2018-07-06T15:28:19.361Z,55.10
2018-07-06T15:30:48.316Z,55.74
2018-07-06T15:33:17.231Z,55.40
2018-07-06T15:35:46.166Z,54.43
2018-07-06T15:38:15.110Z,55.35
2018-07-06T15:40:44.033Z,53.63
2018-07-06T15:43:13.317Z,50.45
2018-07-06T15:45:42.365Z,47.77
2018-07-06T15:48:11.430Z,47.15
2018-07-06T15:50:40.630Z,46.46
2018-07-06T15:53:09.827Z,47.25
2018-07-06T15:55:39.023Z,46.66
2018-07-06T15:58:08.089Z,46.94
2018-07-06T16:00:37.029Z,47.85
2018-07-06T16:03:06.009Z,48.98
2018-07-06T16:05:34.955Z,47.42
2018-07-06T16:08:04.001Z,47.10
2018-07-06T16:10:33.006Z,46.63
2018-07-06T16:13:02.186Z,45.18
2018-07-06T16:15:31.142Z,45.81
2018-07-06T16:18:00.144Z,47.51
2018-07-06T16:20:29.108Z,47.88
2018-07-06T16:22:58.069Z,48.30
2018-07-06T16:25:27.222Z,48.17
2018-07-06T16:27:56.142Z,48.05
2018-07-06T16:30:25.085Z,48.36
2018-07-06T16:32:54.023Z,48.59
2018-07-06T16:35:22.963Z,48.65
2018-07-06T16:37:51.899Z,48.10
2018-07-06T16:40:20.952Z,47.44
2018-07-06T16:42:49.949Z,47.94
2018-07-06T16:45:18.930Z,49.34
2018-07-06T16:47:48.094Z,48.70
2018-07-06T16:50:17.048Z,48.70
2018-07-06T16:52:46.194Z,48.90
2018-07-06T16:55:15.529Z,49.13
2018-07-06T16:57:44.488Z,50.73
2018-07-06T17:00:13.512Z,50.01
2018-07-06T17:02:42.461Z,50.61
2018-07-06T17:05:11.398Z,49.57
2018-07-06T17:07:40.448Z,50.96
2018-07-06T17:10:09.525Z,50.78
2018-07-06T17:12:38.534Z,50.48
2018-07-06T17:15:07.583Z,49.75
2018-07-06T17:17:36.553Z,51.14
2018-07-06T17:20:05.520Z,50.90
2018-07-06T17:22:35.157Z,49.53
2018-07-06T17:25:04.150Z,51.10
2018-07-06T17:27:33.193Z,51.35
2018-07-06T17:30:02.158Z,50.75
2018-07-06T17:32:31.138Z,52.78
2018-07-06T17:35:00.175Z,52.96
2018-07-06T17:37:29.225Z,52.69
2018-07-06T17:39:58.221Z,53.43
2018-07-06T17:42:27.417Z,53.81
2018-07-06T17:44:56.568Z,53.11
2018-07-06T17:47:25.537Z,54.05
2018-07-06T17:49:54.486Z,51.84
2018-07-06T17:52:24.151Z,53.22
2018-07-06T17:54:53.085Z,53.69
2018-07-06T17:57:22.049Z,52.78
2018-07-06T17:59:51.026Z,52.70
2018-07-06T18:02:19.972Z,52.64
2018-07-06T18:04:48.924Z,51.82
2018-07-06T18:07:17.907Z,50.86
2018-07-06T18:09:46.993Z,53.21
2018-07-06T18:12:15.987Z,54.44
2018-07-06T18:14:44.966Z,51.38
2018-07-06T18:17:13.974Z,54.36
2018-07-06T18:19:42.985Z,53.89
2018-07-06T18:22:11.977Z,54.81
2018-07-06T18:24:41.070Z,53.21
2018-07-06T18:27:10.741Z,54.67
2018-07-06T18:29:39.742Z,54.09
2018-07-06T18:32:09.290Z,52.02
2018-07-06T18:34:38.675Z,52.58
2018-07-06T18:37:07.766Z,53.23
2018-07-06T18:39:36.705Z,52.44
2018-07-06T18:42:05.725Z,51.80
2018-07-06T18:44:34.659Z,51.59
2018-07-06T18:47:04.075Z,52.48
2018-07-06T18:49:33.037Z,53.01
2018-07-06T18:52:02.077Z,53.27
2018-07-06T18:54:31.017Z,51.65
2018-07-06T18:56:59.962Z,52.21
2018-07-06T18:59:29.005Z,51.92
2018-07-06T19:01:58.005Z,52.18
2018-07-06T19:04:26.971Z,52.52
2018-07-06T19:06:56.589Z,54.33
2018-07-06T19:09:25.920Z,52.68
2018-07-06T19:11:54.870Z,52.89
2018-07-06T19:14:23.876Z,54.60
2018-07-06T19:16:52.902Z,54.36
2018-07-06T19:25:18.184Z,55.67
2018-07-06T19:27:47.229Z,54.54
2018-07-06T19:30:16.179Z,55.22
2018-07-06T19:32:45.115Z,54.90
2018-07-06T19:35:14.108Z,58.61
2018-07-06T19:37:44.018Z,59.90
2018-07-06T19:40:12.955Z,58.40
2018-07-06T19:42:41.901Z,58.24
2018-07-06T19:45:10.811Z,59.17
2018-07-06T19:47:39.768Z,58.69
2018-07-06T19:50:08.722Z,59.36
2018-07-06T19:52:37.698Z,59.73
2018-07-06T19:55:06.669Z,57.81
2018-07-06T19:57:35.648Z,58.21
2018-07-06T20:00:04.519Z,59.27
2018-07-06T20:02:33.412Z,59.66
2018-07-06T20:05:02.313Z,59.78
2018-07-06T20:07:31.298Z,58.78
2018-07-06T20:10:00.187Z,59.34
2018-07-06T20:12:29.092Z,61.27
2018-07-06T20:14:58.373Z,59.68
2018-07-06T20:17:27.334Z,61.10
2018-07-06T20:19:56.206Z,62.79
2018-07-06T20:22:25.160Z,61.91
2018-07-06T20:24:54.100Z,62.91
2018-07-06T20:27:23.007Z,62.55
2018-07-06T20:29:51.922Z,62.33
2018-07-06T20:32:20.825Z,61.53
2018-07-06T20:34:49.723Z,62.81
2018-07-06T20:37:18.723Z,62.87
2018-07-06T20:39:47.624Z,63.58
2018-07-06T20:42:16.574Z,63.73
2018-07-06T20:44:45.493Z,64.15
2018-07-06T20:47:14.464Z,64.71
2018-07-06T20:49:43.354Z,65.61
2018-07-06T20:52:12.280Z,64.72
2018-07-06T20:54:41.212Z,64.84
2018-07-06T20:57:10.111Z,65.49
2018-07-06T20:59:39.016Z,65.46
2018-07-06T21:02:08.029Z,66.24
2018-07-06T21:04:36.937Z,66.08
2018-07-06T21:07:06.142Z,64.79
2018-07-06T21:09:35.092Z,65.88
2018-07-06T21:12:04.223Z,66.78
2018-07-06T21:14:33.093Z,67.48
2018-07-06T21:17:01.985Z,67.11
2018-07-06T21:19:30.948Z,66.53
2018-07-06T21:21:59.884Z,65.76
2018-07-06T21:24:28.826Z,67.55
2018-07-06T21:26:57.727Z,68.00
2018-07-06T21:29:26.643Z,68.15
2018-07-06T21:31:55.561Z,67.25
2018-07-06T21:34:24.588Z,68.17
2018-07-06T21:36:53.524Z,68.83
2018-07-06T21:39:22.429Z,68.77
2018-07-06T21:41:51.447Z,69.29
2018-07-06T21:44:20.397Z,69.49
2018-07-06T21:46:49.277Z,69.34
2018-07-06T21:49:18.299Z,69.64
2018-07-06T21:51:47.236Z,68.38
2018-07-06T21:54:16.183Z,70.16
2018-07-06T21:56:45.070Z,69.05
2018-07-06T21:59:13.978Z,68.84
2018-07-06T22:01:42.949Z,68.75
2018-07-06T22:04:11.793Z,69.74
2018-07-06T22:06:40.688Z,70.10
2018-07-06T22:09:09.620Z,69.61
2018-07-06T22:11:38.546Z,70.44
2018-07-06T22:14:07.464Z,69.39
2018-07-06T22:16:36.378Z,70.10
2018-07-06T22:19:05.348Z,69.98
2018-07-06T22:21:34.295Z,69.65
2018-07-06T22:24:03.194Z,70.36
2018-07-06T22:26:32.105Z,70.66
2018-07-06T22:29:00.979Z,70.74
2018-07-06T22:31:29.888Z,70.77
2018-07-06T22:33:58.868Z,70.32
2018-07-06T22:36:27.765Z,70.30
2018-07-06T22:38:56.685Z,69.68
2018-07-06T22:41:25.604Z,70.34
2018-07-06T22:43:54.520Z,70.19
2018-07-06T22:46:23.408Z,70.79
2018-07-06T22:48:52.302Z,70.85
2018-07-06T22:51:21.233Z,70.90
2018-07-06T22:53:50.129Z,72.05
2018-07-06T22:56:19.044Z,72.42
2018-07-06T22:58:47.934Z,72.21
2018-07-06T23:01:16.830Z,71.93
2018-07-06T23:03:45.769Z,71.08
2018-07-06T23:06:14.675Z,72.00
2018-07-06T23:08:43.606Z,71.08
2018-07-06T23:11:12.772Z,71.33
2018-07-06T23:13:41.717Z,71.42
2018-07-06T23:16:10.708Z,71.18
2018-07-06T23:18:39.963Z,70.65
2018-07-06T23:21:09.260Z,69.32
2018-07-06T23:23:38.253Z,68.68
2018-07-06T23:26:07.145Z,67.78
2018-07-06T23:28:36.050Z,69.06
2018-07-06T23:31:04.946Z,67.84
2018-07-06T23:33:33.848Z,66.57
2018-07-06T23:36:02.749Z,66.35
2018-07-06T23:38:31.670Z,65.64
2018-07-06T23:41:00.621Z,63.14
2018-07-06T23:43:29.482Z,61.61
2018-07-06T23:45:58.380Z,61.37
2018-07-06T23:48:27.311Z,61.19
2018-07-06T23:50:56.360Z,61.48
2018-07-06T23:53:25.276Z,61.01
2018-07-06T23:55:54.168Z,60.84
2018-07-06T23:58:23.106Z,61.03
